This is the latest recevied weather packets stored in our database for station/object KB1YTR-1. If no packets are shown the sender has not sent any weather packets the latest 1 day(s).
| Time | Temp. | Humidity | Pressure | Rain* | Wind** | Luminosity | Snow |
|---|---|---|---|---|---|---|---|
| 1777983092 | -1.11° C | 74% | 1005.9 hPa | 0 mm | 2.68 m/s, 265° | - | - |
| 1777982237 | -1.11° C | 75% | 1005.9 hPa | 0 mm | 2.24 m/s, 294° | - | - |
| 1777981426 | -1.11° C | 77% | 1005.8 hPa | 0 mm | 3.58 m/s, 298° | - | - |
| 1777980672 | -1.11° C | 78% | 1005.4 hPa | 0 mm | 1.34 m/s, 295° | - | - |
| 1777979942 | -1.11° C | 79% | 1005.3 hPa | 0 mm | 2.24 m/s, 338° | - | - |
| 1777979122 | -1.11° C | 79% | 1005.1 hPa | 0 mm | 3.58 m/s, 320° | - | - |
| 1777978382 | -1.11° C | 80% | 1005.1 hPa | 0 mm | 2.24 m/s, 308° | - | - |
| 1777977609 | -1.11° C | 81% | 1005.1 hPa | 0 mm | 1.79 m/s, 298° | - | - |
| 1777976762 | -1.11° C | 81% | 1004.7 hPa | 0 mm | 0.89 m/s, 297° | - | - |
| 1777975952 | -1.11° C | 81% | 1005 hPa | 0 mm | 2.24 m/s, 323° | - | - |
| 1777975142 | -1.11° C | 83% | 1004.9 hPa | 0 mm | 0.89 m/s, 295° | - | - |
| 1777974410 | -1.11° C | 85% | 1004.5 hPa | 0 mm | 2.24 m/s, 297° | - | - |
| 1777973547 | -1.11° C | 84% | 1004.6 hPa | 0 mm | 3.58 m/s, 328° | - | - |
| 1777972707 | -0.56° C | 84% | 1004.1 hPa | 0 mm | 0.89 m/s, 287° | - | - |
| 1777971862 | 0° C | 83% | 1004.3 hPa | 0 mm | 1.34 m/s, 308° | - | - |
| 1777970985 | 0° C | 84% | 1003.9 hPa | 0 mm | 2.68 m/s, 284° | - | - |
| 1777970176 | 0° C | 87% | 1003.9 hPa | 0 mm | 2.68 m/s, 279° | - | - |
| 1777969307 | 0° C | 91% | 1003.8 hPa | 0 mm | 2.24 m/s, 276° | - | - |
| 1777968467 | 0° C | 93% | 1003.7 hPa | 0 mm | 2.24 m/s, 315° | - | - |
| 1777967727 | 0° C | 94% | 1003.6 hPa | 0 mm | 0.89 m/s, 286° | - | - |
| 1777966872 | 0° C | 94% | 1003.8 hPa | 0 mm | 2.68 m/s, 317° | - | - |
| 1777966017 | 0° C | 93% | 1003.9 hPa | 0 mm | 2.68 m/s, 318° | - | - |
| 1777965242 | 1.67° C | 78% | 1003.7 hPa | 0 mm | 0.89 m/s, 317° | - | - |
| 1777964468 | 1.67° C | 78% | 1003.7 hPa | 0 mm | 1.34 m/s, 309° | - | - |
| 1777963667 | 1.67° C | 77% | 1003.6 hPa | 0 mm | 1.34 m/s, 299° | - | - |
* Rain latest hour (hover to see other rain measurements)
** Current wind speed in m/s (hover to see current wind gust speed)